sensor_id;sensor_type;location;lat;lon;timestamp;P1;durP1;ratioP1;P2;durP2;ratioP2
21215;SDS011;10765;50.954;5.322;2023-11-22T00:01:35;38.43;;;25.40;;
21215;SDS011;10765;50.954;5.322;2023-11-22T00:04:02;32.33;;;23.80;;
21215;SDS011;10765;50.954;5.322;2023-11-22T00:06:29;37.60;;;25.07;;
21215;SDS011;10765;50.954;5.322;2023-11-22T00:08:56;39.10;;;26.37;;
21215;SDS011;10765;50.954;5.322;2023-11-22T00:11:23;36.87;;;25.07;;
21215;SDS011;10765;50.954;5.322;2023-11-22T00:13:50;34.53;;;24.00;;
21215;SDS011;10765;50.954;5.322;2023-11-22T00:16:22;35.27;;;25.23;;
21215;SDS011;10765;50.954;5.322;2023-11-22T00:18:49;36.83;;;25.63;;
21215;SDS011;10765;50.954;5.322;2023-11-22T00:21:15;36.47;;;25.43;;
21215;SDS011;10765;50.954;5.322;2023-11-22T00:23:42;38.57;;;28.37;;
21215;SDS011;10765;50.954;5.322;2023-11-22T00:26:09;38.23;;;27.83;;
21215;SDS011;10765;50.954;5.322;2023-11-22T00:28:36;36.13;;;24.57;;
21215;SDS011;10765;50.954;5.322;2023-11-22T00:31:03;36.70;;;25.17;;
21215;SDS011;10765;50.954;5.322;2023-11-22T00:33:31;35.87;;;23.50;;
21215;SDS011;10765;50.954;5.322;2023-11-22T00:35:59;34.30;;;25.00;;
21215;SDS011;10765;50.954;5.322;2023-11-22T00:38:29;35.20;;;24.23;;
21215;SDS011;10765;50.954;5.322;2023-11-22T00:40:56;35.87;;;24.70;;
21215;SDS011;10765;50.954;5.322;2023-11-22T00:43:23;38.43;;;23.57;;
21215;SDS011;10765;50.954;5.322;2023-11-22T00:45:50;33.17;;;22.70;;
21215;SDS011;10765;50.954;5.322;2023-11-22T00:48:17;36.67;;;24.60;;
21215;SDS011;10765;50.954;5.322;2023-11-22T00:50:45;39.70;;;26.03;;
21215;SDS011;10765;50.954;5.322;2023-11-22T00:53:12;40.63;;;25.87;;
21215;SDS011;10765;50.954;5.322;2023-11-22T00:55:39;36.27;;;24.67;;
21215;SDS011;10765;50.954;5.322;2023-11-22T00:58:07;37.77;;;24.23;;
21215;SDS011;10765;50.954;5.322;2023-11-22T01:00:34;39.17;;;25.87;;
21215;SDS011;10765;50.954;5.322;2023-11-22T01:03:01;43.53;;;26.60;;
21215;SDS011;10765;50.954;5.322;2023-11-22T01:05:29;41.93;;;26.23;;
21215;SDS011;10765;50.954;5.322;2023-11-22T01:07:58;39.87;;;26.10;;
21215;SDS011;10765;50.954;5.322;2023-11-22T01:10:25;39.93;;;25.77;;
21215;SDS011;10765;50.954;5.322;2023-11-22T01:12:51;42.97;;;26.73;;
21215;SDS011;10765;50.954;5.322;2023-11-22T01:15:18;40.40;;;26.70;;
21215;SDS011;10765;50.954;5.322;2023-11-22T01:17:45;47.27;;;28.10;;
21215;SDS011;10765;50.954;5.322;2023-11-22T01:20:12;48.83;;;27.60;;
21215;SDS011;10765;50.954;5.322;2023-11-22T01:22:39;46.40;;;28.53;;
21215;SDS011;10765;50.954;5.322;2023-11-22T01:25:08;45.40;;;28.90;;
21215;SDS011;10765;50.954;5.322;2023-11-22T01:27:35;46.37;;;28.33;;
21215;SDS011;10765;50.954;5.322;2023-11-22T01:30:02;56.07;;;31.97;;
21215;SDS011;10765;50.954;5.322;2023-11-22T01:32:32;50.37;;;29.87;;
21215;SDS011;10765;50.954;5.322;2023-11-22T01:34:59;51.13;;;31.07;;
21215;SDS011;10765;50.954;5.322;2023-11-22T01:37:26;62.30;;;33.73;;
21215;SDS011;10765;50.954;5.322;2023-11-22T01:39:53;52.93;;;32.33;;
21215;SDS011;10765;50.954;5.322;2023-11-22T01:42:21;60.90;;;35.27;;
21215;SDS011;10765;50.954;5.322;2023-11-22T01:44:49;57.43;;;32.83;;
21215;SDS011;10765;50.954;5.322;2023-11-22T01:47:15;58.27;;;32.60;;
21215;SDS011;10765;50.954;5.322;2023-11-22T01:49:43;59.97;;;32.60;;
21215;SDS011;10765;50.954;5.322;2023-11-22T01:52:11;60.47;;;33.50;;
21215;SDS011;10765;50.954;5.322;2023-11-22T01:54:38;63.60;;;37.67;;
21215;SDS011;10765;50.954;5.322;2023-11-22T01:57:05;62.00;;;34.57;;
21215;SDS011;10765;50.954;5.322;2023-11-22T01:59:35;57.97;;;33.87;;
21215;SDS011;10765;50.954;5.322;2023-11-22T02:02:02;61.60;;;34.67;;
21215;SDS011;10765;50.954;5.322;2023-11-22T02:04:29;59.80;;;35.73;;
21215;SDS011;10765;50.954;5.322;2023-11-22T02:06:56;57.73;;;33.07;;
21215;SDS011;10765;50.954;5.322;2023-11-22T02:09:23;62.60;;;36.07;;
21215;SDS011;10765;50.954;5.322;2023-11-22T02:11:50;51.97;;;32.13;;
21215;SDS011;10765;50.954;5.322;2023-11-22T02:14:17;54.00;;;34.43;;
21215;SDS011;10765;50.954;5.322;2023-11-22T02:16:46;54.03;;;34.17;;
21215;SDS011;10765;50.954;5.322;2023-11-22T02:19:14;54.73;;;34.03;;
21215;SDS011;10765;50.954;5.322;2023-11-22T02:21:42;50.07;;;31.27;;
21215;SDS011;10765;50.954;5.322;2023-11-22T02:24:10;52.97;;;32.73;;
21215;SDS011;10765;50.954;5.322;2023-11-22T02:26:37;51.03;;;32.37;;
21215;SDS011;10765;50.954;5.322;2023-11-22T02:29:09;52.23;;;31.90;;
21215;SDS011;10765;50.954;5.322;2023-11-22T02:31:36;49.50;;;31.10;;
21215;SDS011;10765;50.954;5.322;2023-11-22T02:34:02;50.53;;;31.60;;
21215;SDS011;10765;50.954;5.322;2023-11-22T02:36:30;49.47;;;31.37;;
21215;SDS011;10765;50.954;5.322;2023-11-22T02:38:57;51.33;;;31.27;;
21215;SDS011;10765;50.954;5.322;2023-11-22T02:41:27;51.63;;;31.97;;
21215;SDS011;10765;50.954;5.322;2023-11-22T02:43:55;47.73;;;31.47;;
21215;SDS011;10765;50.954;5.322;2023-11-22T02:46:22;53.23;;;32.30;;
21215;SDS011;10765;50.954;5.322;2023-11-22T02:48:49;54.40;;;33.83;;
21215;SDS011;10765;50.954;5.322;2023-11-22T02:51:16;49.27;;;30.60;;
21215;SDS011;10765;50.954;5.322;2023-11-22T02:53:43;50.23;;;32.07;;
21215;SDS011;10765;50.954;5.322;2023-11-22T02:56:11;47.60;;;30.87;;
21215;SDS011;10765;50.954;5.322;2023-11-22T02:58:39;45.00;;;30.07;;
21215;SDS011;10765;50.954;5.322;2023-11-22T03:01:07;45.53;;;29.43;;
21215;SDS011;10765;50.954;5.322;2023-11-22T03:03:34;46.43;;;31.23;;
21215;SDS011;10765;50.954;5.322;2023-11-22T03:06:01;47.57;;;30.73;;
21215;SDS011;10765;50.954;5.322;2023-11-22T03:08:28;46.83;;;30.73;;
21215;SDS011;10765;50.954;5.322;2023-11-22T03:10:55;44.43;;;29.53;;
21215;SDS011;10765;50.954;5.322;2023-11-22T03:13:22;46.27;;;31.43;;
21215;SDS011;10765;50.954;5.322;2023-11-22T03:15:50;44.90;;;28.93;;
21215;SDS011;10765;50.954;5.322;2023-11-22T03:18:17;44.23;;;30.17;;
21215;SDS011;10765;50.954;5.322;2023-11-22T03:20:46;45.87;;;29.57;;
21215;SDS011;10765;50.954;5.322;2023-11-22T03:23:13;43.10;;;28.97;;
21215;SDS011;10765;50.954;5.322;2023-11-22T03:25:41;45.63;;;30.00;;
21215;SDS011;10765;50.954;5.322;2023-11-22T03:28:08;43.33;;;29.60;;
21215;SDS011;10765;50.954;5.322;2023-11-22T03:30:35;41.77;;;29.67;;
21215;SDS011;10765;50.954;5.322;2023-11-22T03:33:04;43.90;;;31.20;;
21215;SDS011;10765;50.954;5.322;2023-11-22T03:35:30;40.83;;;28.83;;
21215;SDS011;10765;50.954;5.322;2023-11-22T03:37:57;43.63;;;30.43;;
21215;SDS011;10765;50.954;5.322;2023-11-22T03:40:24;41.37;;;29.20;;
21215;SDS011;10765;50.954;5.322;2023-11-22T03:42:51;43.00;;;29.43;;
21215;SDS011;10765;50.954;5.322;2023-11-22T03:45:18;40.10;;;28.37;;
21215;SDS011;10765;50.954;5.322;2023-11-22T03:47:45;41.37;;;29.37;;
21215;SDS011;10765;50.954;5.322;2023-11-22T03:50:13;38.77;;;28.07;;
21215;SDS011;10765;50.954;5.322;2023-11-22T03:52:40;40.70;;;27.90;;
21215;SDS011;10765;50.954;5.322;2023-11-22T03:55:07;39.87;;;29.57;;
21215;SDS011;10765;50.954;5.322;2023-11-22T03:57:34;39.50;;;28.77;;
21215;SDS011;10765;50.954;5.322;2023-11-22T04:00:02;36.10;;;26.33;;
21215;SDS011;10765;50.954;5.322;2023-11-22T04:02:31;37.23;;;28.40;;
21215;SDS011;10765;50.954;5.322;2023-11-22T04:04:58;35.80;;;27.00;;
21215;SDS011;10765;50.954;5.322;2023-11-22T04:07:26;39.80;;;27.10;;
21215;SDS011;10765;50.954;5.322;2023-11-22T04:09:53;38.03;;;28.30;;
21215;SDS011;10765;50.954;5.322;2023-11-22T04:12:20;37.80;;;27.83;;
21215;SDS011;10765;50.954;5.322;2023-11-22T04:14:47;65.77;;;43.27;;
21215;SDS011;10765;50.954;5.322;2023-11-22T04:17:16;43.27;;;30.03;;
21215;SDS011;10765;50.954;5.322;2023-11-22T04:19:43;51.57;;;36.47;;
21215;SDS011;10765;50.954;5.322;2023-11-22T04:22:10;41.07;;;30.37;;
21215;SDS011;10765;50.954;5.322;2023-11-22T04:24:39;35.40;;;28.00;;
21215;SDS011;10765;50.954;5.322;2023-11-22T04:27:06;36.77;;;27.70;;
21215;SDS011;10765;50.954;5.322;2023-11-22T04:29:32;39.03;;;29.30;;
21215;SDS011;10765;50.954;5.322;2023-11-22T04:31:59;40.87;;;30.93;;
21215;SDS011;10765;50.954;5.322;2023-11-22T04:34:26;80.00;;;56.20;;
21215;SDS011;10765;50.954;5.322;2023-11-22T04:36:53;48.17;;;36.03;;
21215;SDS011;10765;50.954;5.322;2023-11-22T04:39:20;36.03;;;28.67;;
21215;SDS011;10765;50.954;5.322;2023-11-22T04:41:48;47.40;;;37.60;;
21215;SDS011;10765;50.954;5.322;2023-11-22T04:44:16;47.00;;;36.27;;
21215;SDS011;10765;50.954;5.322;2023-11-22T04:46:42;39.00;;;29.87;;
21215;SDS011;10765;50.954;5.322;2023-11-22T04:49:09;42.57;;;30.87;;
21215;SDS011;10765;50.954;5.322;2023-11-22T04:51:36;58.17;;;44.37;;
21215;SDS011;10765;50.954;5.322;2023-11-22T04:54:03;58.23;;;43.77;;
21215;SDS011;10765;50.954;5.322;2023-11-22T04:56:30;60.67;;;44.60;;
21215;SDS011;10765;50.954;5.322;2023-11-22T04:58:59;87.43;;;63.57;;
21215;SDS011;10765;50.954;5.322;2023-11-22T05:01:30;70.00;;;51.70;;
21215;SDS011;10765;50.954;5.322;2023-11-22T05:03:58;62.13;;;44.67;;
21215;SDS011;10765;50.954;5.322;2023-11-22T05:06:25;60.53;;;43.97;;
21215;SDS011;10765;50.954;5.322;2023-11-22T05:08:52;39.83;;;29.33;;
21215;SDS011;10765;50.954;5.322;2023-11-22T05:11:19;44.50;;;29.83;;
21215;SDS011;10765;50.954;5.322;2023-11-22T05:13:46;51.13;;;35.73;;
21215;SDS011;10765;50.954;5.322;2023-11-22T05:16:14;49.50;;;32.33;;
21215;SDS011;10765;50.954;5.322;2023-11-22T05:18:41;46.63;;;31.93;;
21215;SDS011;10765;50.954;5.322;2023-11-22T05:21:07;46.73;;;33.23;;
21215;SDS011;10765;50.954;5.322;2023-11-22T05:23:34;46.37;;;32.83;;
21215;SDS011;10765;50.954;5.322;2023-11-22T05:26:02;44.87;;;30.47;;
21215;SDS011;10765;50.954;5.322;2023-11-22T05:28:30;46.27;;;31.40;;
21215;SDS011;10765;50.954;5.322;2023-11-22T05:30:57;46.83;;;31.37;;
21215;SDS011;10765;50.954;5.322;2023-11-22T05:33:25;47.00;;;33.33;;
21215;SDS011;10765;50.954;5.322;2023-11-22T05:35:52;50.67;;;34.80;;
21215;SDS011;10765;50.954;5.322;2023-11-22T05:38:19;66.33;;;50.63;;
21215;SDS011;10765;50.954;5.322;2023-11-22T05:40:46;73.27;;;57.33;;
21215;SDS011;10765;50.954;5.322;2023-11-22T05:43:13;53.13;;;35.93;;
21215;SDS011;10765;50.954;5.322;2023-11-22T05:45:40;47.50;;;34.33;;
21215;SDS011;10765;50.954;5.322;2023-11-22T05:48:07;57.23;;;41.93;;
21215;SDS011;10765;50.954;5.322;2023-11-22T05:50:35;53.03;;;36.97;;
21215;SDS011;10765;50.954;5.322;2023-11-22T05:53:01;48.60;;;33.80;;
21215;SDS011;10765;50.954;5.322;2023-11-22T05:55:29;62.50;;;46.00;;
21215;SDS011;10765;50.954;5.322;2023-11-22T05:57:57;74.40;;;57.20;;
21215;SDS011;10765;50.954;5.322;2023-11-22T06:00:24;65.67;;;49.70;;
21215;SDS011;10765;50.954;5.322;2023-11-22T06:02:51;49.77;;;35.47;;
21215;SDS011;10765;50.954;5.322;2023-11-22T06:05:18;41.77;;;29.63;;
21215;SDS011;10765;50.954;5.322;2023-11-22T06:07:46;40.10;;;29.77;;
21215;SDS011;10765;50.954;5.322;2023-11-22T06:10:15;41.27;;;29.23;;
21215;SDS011;10765;50.954;5.322;2023-11-22T06:12:42;41.47;;;30.67;;
21215;SDS011;10765;50.954;5.322;2023-11-22T06:15:09;54.07;;;38.53;;
21215;SDS011;10765;50.954;5.322;2023-11-22T06:17:37;55.40;;;37.73;;
21215;SDS011;10765;50.954;5.322;2023-11-22T06:20:04;45.87;;;30.47;;
21215;SDS011;10765;50.954;5.322;2023-11-22T06:22:32;49.30;;;33.50;;
21215;SDS011;10765;50.954;5.322;2023-11-22T06:25:00;45.43;;;31.43;;
21215;SDS011;10765;50.954;5.322;2023-11-22T06:27:27;46.50;;;31.90;;
21215;SDS011;10765;50.954;5.322;2023-11-22T06:29:54;49.13;;;32.70;;
21215;SDS011;10765;50.954;5.322;2023-11-22T06:32:21;54.93;;;36.53;;
21215;SDS011;10765;50.954;5.322;2023-11-22T06:34:47;86.40;;;65.00;;
21215;SDS011;10765;50.954;5.322;2023-11-22T06:37:14;102.10;;;66.87;;
21215;SDS011;10765;50.954;5.322;2023-11-22T06:39:41;91.00;;;60.97;;
21215;SDS011;10765;50.954;5.322;2023-11-22T06:42:10;57.63;;;39.87;;
21215;SDS011;10765;50.954;5.322;2023-11-22T06:44:36;47.23;;;32.57;;
21215;SDS011;10765;50.954;5.322;2023-11-22T06:47:05;46.63;;;32.07;;
21215;SDS011;10765;50.954;5.322;2023-11-22T06:49:32;49.67;;;33.23;;
21215;SDS011;10765;50.954;5.322;2023-11-22T06:51:59;49.43;;;32.93;;
21215;SDS011;10765;50.954;5.322;2023-11-22T06:54:26;46.47;;;31.87;;
21215;SDS011;10765;50.954;5.322;2023-11-22T06:56:53;46.67;;;31.07;;
21215;SDS011;10765;50.954;5.322;2023-11-22T06:59:21;54.20;;;36.83;;
21215;SDS011;10765;50.954;5.322;2023-11-22T07:01:51;50.60;;;32.50;;
21215;SDS011;10765;50.954;5.322;2023-11-22T07:04:18;52.03;;;34.53;;
21215;SDS011;10765;50.954;5.322;2023-11-22T07:06:46;85.03;;;56.23;;
21215;SDS011;10765;50.954;5.322;2023-11-22T07:09:14;68.20;;;46.23;;
21215;SDS011;10765;50.954;5.322;2023-11-22T07:11:40;55.30;;;36.30;;
21215;SDS011;10765;50.954;5.322;2023-11-22T07:14:09;49.53;;;33.13;;
21215;SDS011;10765;50.954;5.322;2023-11-22T07:16:38;46.13;;;31.47;;
21215;SDS011;10765;50.954;5.322;2023-11-22T07:19:05;49.70;;;32.57;;
21215;SDS011;10765;50.954;5.322;2023-11-22T07:21:31;47.83;;;31.50;;
21215;SDS011;10765;50.954;5.322;2023-11-22T07:24:02;49.13;;;30.87;;
21215;SDS011;10765;50.954;5.322;2023-11-22T07:26:31;55.43;;;35.90;;
21215;SDS011;10765;50.954;5.322;2023-11-22T07:28:59;56.03;;;36.73;;
21215;SDS011;10765;50.954;5.322;2023-11-22T07:31:26;53.43;;;34.20;;
21215;SDS011;10765;50.954;5.322;2023-11-22T07:33:55;51.80;;;33.03;;
21215;SDS011;10765;50.954;5.322;2023-11-22T07:36:22;51.97;;;32.87;;
21215;SDS011;10765;50.954;5.322;2023-11-22T07:38:49;47.33;;;31.13;;
21215;SDS011;10765;50.954;5.322;2023-11-22T07:41:18;49.93;;;31.63;;
21215;SDS011;10765;50.954;5.322;2023-11-22T07:43:46;47.33;;;32.07;;
21215;SDS011;10765;50.954;5.322;2023-11-22T07:46:13;43.53;;;29.77;;
21215;SDS011;10765;50.954;5.322;2023-11-22T07:48:42;46.23;;;29.00;;
21215;SDS011;10765;50.954;5.322;2023-11-22T07:51:12;43.03;;;29.47;;
21215;SDS011;10765;50.954;5.322;2023-11-22T07:53:40;44.67;;;28.80;;
21215;SDS011;10765;50.954;5.322;2023-11-22T07:56:08;45.07;;;30.03;;
21215;SDS011;10765;50.954;5.322;2023-11-22T07:58:36;51.23;;;32.30;;
21215;SDS011;10765;50.954;5.322;2023-11-22T08:01:03;44.50;;;29.10;;
21215;SDS011;10765;50.954;5.322;2023-11-22T08:03:31;50.80;;;31.53;;
21215;SDS011;10765;50.954;5.322;2023-11-22T08:06:00;44.50;;;29.00;;
21215;SDS011;10765;50.954;5.322;2023-11-22T08:08:29;46.57;;;29.87;;
21215;SDS011;10765;50.954;5.322;2023-11-22T08:10:56;46.77;;;30.10;;
21215;SDS011;10765;50.954;5.322;2023-11-22T08:13:23;48.53;;;31.73;;
21215;SDS011;10765;50.954;5.322;2023-11-22T08:15:50;50.53;;;32.73;;
21215;SDS011;10765;50.954;5.322;2023-11-22T08:18:18;42.60;;;28.37;;
21215;SDS011;10765;50.954;5.322;2023-11-22T08:20:45;45.53;;;29.80;;
21215;SDS011;10765;50.954;5.322;2023-11-22T08:23:11;46.50;;;30.77;;
21215;SDS011;10765;50.954;5.322;2023-11-22T08:25:41;42.53;;;29.37;;
21215;SDS011;10765;50.954;5.322;2023-11-22T08:28:08;39.87;;;27.37;;
21215;SDS011;10765;50.954;5.322;2023-11-22T08:30:35;40.77;;;26.77;;
21215;SDS011;10765;50.954;5.322;2023-11-22T08:33:02;40.87;;;28.17;;
21215;SDS011;10765;50.954;5.322;2023-11-22T08:35:32;45.13;;;30.53;;
21215;SDS011;10765;50.954;5.322;2023-11-22T08:38:00;73.40;;;50.73;;
21215;SDS011;10765;50.954;5.322;2023-11-22T08:40:28;61.63;;;41.47;;
21215;SDS011;10765;50.954;5.322;2023-11-22T08:42:56;46.63;;;32.93;;
21215;SDS011;10765;50.954;5.322;2023-11-22T08:45:23;53.07;;;38.27;;
21215;SDS011;10765;50.954;5.322;2023-11-22T08:47:50;42.07;;;27.23;;
21215;SDS011;10765;50.954;5.322;2023-11-22T08:50:17;49.77;;;33.27;;
21215;SDS011;10765;50.954;5.322;2023-11-22T08:52:45;39.10;;;25.53;;
21215;SDS011;10765;50.954;5.322;2023-11-22T08:55:12;38.27;;;25.90;;
21215;SDS011;10765;50.954;5.322;2023-11-22T08:57:39;37.90;;;26.53;;
21215;SDS011;10765;50.954;5.322;2023-11-22T09:00:08;36.43;;;25.57;;
21215;SDS011;10765;50.954;5.322;2023-11-22T09:02:36;34.97;;;25.33;;
21215;SDS011;10765;50.954;5.322;2023-11-22T09:05:04;39.93;;;28.27;;
21215;SDS011;10765;50.954;5.322;2023-11-22T09:07:33;34.00;;;26.00;;
21215;SDS011;10765;50.954;5.322;2023-11-22T09:10:01;36.63;;;25.67;;
21215;SDS011;10765;50.954;5.322;2023-11-22T09:12:34;36.63;;;26.57;;
21215;SDS011;10765;50.954;5.322;2023-11-22T09:15:03;37.37;;;26.73;;
21215;SDS011;10765;50.954;5.322;2023-11-22T09:17:35;32.20;;;24.33;;
21215;SDS011;10765;50.954;5.322;2023-11-22T09:20:04;43.07;;;31.23;;
21215;SDS011;10765;50.954;5.322;2023-11-22T09:22:36;33.40;;;25.63;;
21215;SDS011;10765;50.954;5.322;2023-11-22T09:25:05;44.73;;;27.27;;
21215;SDS011;10765;50.954;5.322;2023-11-22T09:27:34;38.23;;;26.87;;
21215;SDS011;10765;50.954;5.322;2023-11-22T09:30:03;34.80;;;26.87;;
21215;SDS011;10765;50.954;5.322;2023-11-22T09:32:30;105.00;;;72.40;;
21215;SDS011;10765;50.954;5.322;2023-11-22T09:34:59;36.23;;;27.27;;
21215;SDS011;10765;50.954;5.322;2023-11-22T09:37:26;37.57;;;27.00;;
21215;SDS011;10765;50.954;5.322;2023-11-22T09:39:54;40.50;;;27.43;;
21215;SDS011;10765;50.954;5.322;2023-11-22T09:42:21;42.40;;;31.07;;
21215;SDS011;10765;50.954;5.322;2023-11-22T09:44:47;35.27;;;27.00;;
21215;SDS011;10765;50.954;5.322;2023-11-22T09:47:14;39.13;;;28.40;;
21215;SDS011;10765;50.954;5.322;2023-11-22T09:49:44;39.30;;;28.33;;
21215;SDS011;10765;50.954;5.322;2023-11-22T09:52:17;36.03;;;26.17;;
21215;SDS011;10765;50.954;5.322;2023-11-22T09:54:51;35.83;;;26.03;;
21215;SDS011;10765;50.954;5.322;2023-11-22T09:57:19;34.37;;;26.30;;
21215;SDS011;10765;50.954;5.322;2023-11-22T09:59:46;35.20;;;27.57;;
21215;SDS011;10765;50.954;5.322;2023-11-22T10:02:17;33.73;;;24.90;;
21215;SDS011;10765;50.954;5.322;2023-11-22T10:04:45;29.63;;;23.77;;
21215;SDS011;10765;50.954;5.322;2023-11-22T10:07:12;30.10;;;22.93;;
21215;SDS011;10765;50.954;5.322;2023-11-22T10:09:41;28.33;;;22.03;;
21215;SDS011;10765;50.954;5.322;2023-11-22T10:12:09;26.27;;;21.80;;
21215;SDS011;10765;50.954;5.322;2023-11-22T10:14:40;23.83;;;19.63;;
21215;SDS011;10765;50.954;5.322;2023-11-22T10:17:07;24.97;;;19.73;;
21215;SDS011;10765;50.954;5.322;2023-11-22T10:19:35;24.53;;;20.10;;
21215;SDS011;10765;50.954;5.322;2023-11-22T10:22:02;24.83;;;20.70;;
21215;SDS011;10765;50.954;5.322;2023-11-22T10:24:30;25.10;;;19.73;;
21215;SDS011;10765;50.954;5.322;2023-11-22T10:26:59;24.83;;;20.30;;
21215;SDS011;10765;50.954;5.322;2023-11-22T10:29:27;25.80;;;21.23;;
21215;SDS011;10765;50.954;5.322;2023-11-22T10:31:54;25.47;;;20.17;;
21215;SDS011;10765;50.954;5.322;2023-11-22T10:34:22;26.07;;;19.90;;
21215;SDS011;10765;50.954;5.322;2023-11-22T10:36:50;25.83;;;21.27;;
21215;SDS011;10765;50.954;5.322;2023-11-22T10:39:20;23.43;;;20.53;;
21215;SDS011;10765;50.954;5.322;2023-11-22T10:41:48;24.90;;;20.50;;
21215;SDS011;10765;50.954;5.322;2023-11-22T10:44:17;26.30;;;21.03;;
21215;SDS011;10765;50.954;5.322;2023-11-22T10:46:47;25.00;;;20.77;;
21215;SDS011;10765;50.954;5.322;2023-11-22T10:49:16;25.47;;;20.53;;
21215;SDS011;10765;50.954;5.322;2023-11-22T10:51:43;28.30;;;22.00;;
21215;SDS011;10765;50.954;5.322;2023-11-22T10:54:12;26.80;;;22.13;;
21215;SDS011;10765;50.954;5.322;2023-11-22T10:56:39;35.80;;;26.73;;
21215;SDS011;10765;50.954;5.322;2023-11-22T10:59:10;25.97;;;20.70;;
21215;SDS011;10765;50.954;5.322;2023-11-22T11:01:43;24.63;;;19.50;;
21215;SDS011;10765;50.954;5.322;2023-11-22T11:04:15;25.53;;;20.13;;
21215;SDS011;10765;50.954;5.322;2023-11-22T11:06:51;26.23;;;21.40;;
21215;SDS011;10765;50.954;5.322;2023-11-22T11:09:22;25.47;;;21.37;;
21215;SDS011;10765;50.954;5.322;2023-11-22T11:11:57;27.63;;;21.47;;
21215;SDS011;10765;50.954;5.322;2023-11-22T11:14:24;27.03;;;21.47;;
21215;SDS011;10765;50.954;5.322;2023-11-22T11:16:54;26.43;;;21.33;;
21215;SDS011;10765;50.954;5.322;2023-11-22T11:19:23;29.00;;;23.70;;
21215;SDS011;10765;50.954;5.322;2023-11-22T11:21:51;28.60;;;22.00;;
21215;SDS011;10765;50.954;5.322;2023-11-22T11:24:18;25.93;;;20.57;;
21215;SDS011;10765;50.954;5.322;2023-11-22T11:26:47;25.97;;;20.93;;
21215;SDS011;10765;50.954;5.322;2023-11-22T11:29:30;27.23;;;21.37;;
21215;SDS011;10765;50.954;5.322;2023-11-22T11:31:58;26.33;;;21.50;;
21215;SDS011;10765;50.954;5.322;2023-11-22T11:34:26;28.13;;;22.47;;
21215;SDS011;10765;50.954;5.322;2023-11-22T11:36:54;26.63;;;21.23;;
21215;SDS011;10765;50.954;5.322;2023-11-22T11:39:24;27.17;;;21.17;;
21215;SDS011;10765;50.954;5.322;2023-11-22T11:42:07;24.50;;;21.07;;
21215;SDS011;10765;50.954;5.322;2023-11-22T11:44:34;26.30;;;20.87;;
21215;SDS011;10765;50.954;5.322;2023-11-22T11:47:09;27.17;;;21.50;;
21215;SDS011;10765;50.954;5.322;2023-11-22T11:49:37;27.00;;;21.47;;
21215;SDS011;10765;50.954;5.322;2023-11-22T11:52:04;28.03;;;22.30;;
21215;SDS011;10765;50.954;5.322;2023-11-22T11:54:32;26.53;;;22.00;;
21215;SDS011;10765;50.954;5.322;2023-11-22T11:56:59;25.17;;;20.53;;
21215;SDS011;10765;50.954;5.322;2023-11-22T11:59:27;25.23;;;19.67;;
21215;SDS011;10765;50.954;5.322;2023-11-22T12:01:55;22.93;;;19.03;;
21215;SDS011;10765;50.954;5.322;2023-11-22T12:04:24;22.43;;;19.07;;
21215;SDS011;10765;50.954;5.322;2023-11-22T12:06:51;23.53;;;19.03;;
21215;SDS011;10765;50.954;5.322;2023-11-22T12:09:22;23.77;;;19.23;;
21215;SDS011;10765;50.954;5.322;2023-11-22T12:11:50;22.73;;;19.00;;
21215;SDS011;10765;50.954;5.322;2023-11-22T12:14:18;21.77;;;19.20;;
21215;SDS011;10765;50.954;5.322;2023-11-22T12:16:45;21.53;;;18.63;;
21215;SDS011;10765;50.954;5.322;2023-11-22T12:19:20;22.90;;;19.77;;
21215;SDS011;10765;50.954;5.322;2023-11-22T12:21:49;23.60;;;19.53;;
21215;SDS011;10765;50.954;5.322;2023-11-22T12:24:16;23.83;;;19.37;;
21215;SDS011;10765;50.954;5.322;2023-11-22T12:26:44;24.13;;;19.23;;
21215;SDS011;10765;50.954;5.322;2023-11-22T12:29:13;23.27;;;19.63;;
21215;SDS011;10765;50.954;5.322;2023-11-22T12:31:44;23.67;;;19.77;;
21215;SDS011;10765;50.954;5.322;2023-11-22T12:34:12;22.77;;;19.00;;
21215;SDS011;10765;50.954;5.322;2023-11-22T12:36:40;22.27;;;19.00;;
21215;SDS011;10765;50.954;5.322;2023-11-22T12:39:09;22.57;;;19.00;;
21215;SDS011;10765;50.954;5.322;2023-11-22T12:41:42;23.00;;;18.07;;
21215;SDS011;10765;50.954;5.322;2023-11-22T12:44:14;21.83;;;17.90;;
21215;SDS011;10765;50.954;5.322;2023-11-22T12:46:44;21.60;;;18.23;;
21215;SDS011;10765;50.954;5.322;2023-11-22T12:49:14;23.57;;;19.23;;
21215;SDS011;10765;50.954;5.322;2023-11-22T12:51:45;23.97;;;18.77;;
21215;SDS011;10765;50.954;5.322;2023-11-22T12:54:14;25.20;;;19.80;;
21215;SDS011;10765;50.954;5.322;2023-11-22T12:56:41;23.47;;;19.93;;
21215;SDS011;10765;50.954;5.322;2023-11-22T12:59:08;23.80;;;19.60;;
21215;SDS011;10765;50.954;5.322;2023-11-22T13:01:37;25.20;;;19.17;;
21215;SDS011;10765;50.954;5.322;2023-11-22T13:04:04;23.67;;;18.73;;
21215;SDS011;10765;50.954;5.322;2023-11-22T13:06:31;23.37;;;19.70;;
21215;SDS011;10765;50.954;5.322;2023-11-22T13:08:58;24.00;;;19.17;;
21215;SDS011;10765;50.954;5.322;2023-11-22T13:11:26;23.30;;;19.27;;
21215;SDS011;10765;50.954;5.322;2023-11-22T13:13:53;22.60;;;18.67;;
21215;SDS011;10765;50.954;5.322;2023-11-22T13:16:21;22.97;;;18.90;;
21215;SDS011;10765;50.954;5.322;2023-11-22T13:18:48;23.70;;;18.23;;
21215;SDS011;10765;50.954;5.322;2023-11-22T13:21:15;24.00;;;19.80;;
21215;SDS011;10765;50.954;5.322;2023-11-22T13:23:41;26.20;;;20.30;;
21215;SDS011;10765;50.954;5.322;2023-11-22T13:26:08;26.00;;;20.63;;
21215;SDS011;10765;50.954;5.322;2023-11-22T13:28:39;25.87;;;21.30;;
21215;SDS011;10765;50.954;5.322;2023-11-22T13:31:07;28.80;;;20.87;;
21215;SDS011;10765;50.954;5.322;2023-11-22T13:33:35;24.20;;;19.07;;
21215;SDS011;10765;50.954;5.322;2023-11-22T13:36:03;23.20;;;18.03;;
21215;SDS011;10765;50.954;5.322;2023-11-22T13:38:30;24.33;;;19.30;;
21215;SDS011;10765;50.954;5.322;2023-11-22T13:40:57;22.77;;;18.47;;
21215;SDS011;10765;50.954;5.322;2023-11-22T13:43:24;24.27;;;18.60;;
21215;SDS011;10765;50.954;5.322;2023-11-22T13:45:53;23.63;;;18.10;;
21215;SDS011;10765;50.954;5.322;2023-11-22T13:48:19;25.27;;;17.73;;
21215;SDS011;10765;50.954;5.322;2023-11-22T13:50:48;22.93;;;17.57;;
21215;SDS011;10765;50.954;5.322;2023-11-22T13:53:15;24.60;;;17.60;;
21215;SDS011;10765;50.954;5.322;2023-11-22T13:55:46;36.30;;;25.80;;
21215;SDS011;10765;50.954;5.322;2023-11-22T13:58:15;22.70;;;17.37;;
21215;SDS011;10765;50.954;5.322;2023-11-22T14:00:42;21.40;;;16.60;;
21215;SDS011;10765;50.954;5.322;2023-11-22T14:03:13;21.87;;;17.97;;
21215;SDS011;10765;50.954;5.322;2023-11-22T14:05:40;20.60;;;16.60;;
21215;SDS011;10765;50.954;5.322;2023-11-22T14:08:06;23.43;;;16.87;;
21215;SDS011;10765;50.954;5.322;2023-11-22T14:10:33;21.17;;;17.07;;
21215;SDS011;10765;50.954;5.322;2023-11-22T14:13:00;21.27;;;17.27;;
21215;SDS011;10765;50.954;5.322;2023-11-22T14:15:30;22.90;;;17.70;;
21215;SDS011;10765;50.954;5.322;2023-11-22T14:17:57;22.27;;;18.30;;
21215;SDS011;10765;50.954;5.322;2023-11-22T14:20:25;22.30;;;17.77;;
21215;SDS011;10765;50.954;5.322;2023-11-22T14:22:54;22.37;;;17.10;;
21215;SDS011;10765;50.954;5.322;2023-11-22T14:25:21;22.17;;;17.77;;